sensor_id;sensor_type;location;lat;lon;timestamp;temperature;humidity
39665;DHT22;26679;50.872;4.332;2024-01-10T00:00:36;19.10;49.80
39665;DHT22;26679;50.872;4.332;2024-01-10T00:03:01;19.10;49.90
39665;DHT22;26679;50.872;4.332;2024-01-10T00:05:27;19.00;49.90
39665;DHT22;26679;50.872;4.332;2024-01-10T00:07:52;19.00;50.00
39665;DHT22;26679;50.872;4.332;2024-01-10T00:10:18;19.00;50.10
39665;DHT22;26679;50.872;4.332;2024-01-10T00:12:43;18.90;50.10
39665;DHT22;26679;50.872;4.332;2024-01-10T00:15:09;18.90;50.20
39665;DHT22;26679;50.872;4.332;2024-01-10T00:17:35;18.80;50.30
39665;DHT22;26679;50.872;4.332;2024-01-10T00:20:00;18.80;50.30
39665;DHT22;26679;50.872;4.332;2024-01-10T00:22:26;18.80;50.40
39665;DHT22;26679;50.872;4.332;2024-01-10T00:24:51;18.70;50.40
39665;DHT22;26679;50.872;4.332;2024-01-10T00:27:17;18.70;50.50
39665;DHT22;26679;50.872;4.332;2024-01-10T00:29:42;18.70;50.50
39665;DHT22;26679;50.872;4.332;2024-01-10T00:32:08;18.60;50.40
39665;DHT22;26679;50.872;4.332;2024-01-10T00:34:33;18.60;50.50
39665;DHT22;26679;50.872;4.332;2024-01-10T00:36:59;18.60;50.50
39665;DHT22;26679;50.872;4.332;2024-01-10T00:39:24;18.60;50.50
39665;DHT22;26679;50.872;4.332;2024-01-10T00:41:50;18.50;50.50
39665;DHT22;26679;50.872;4.332;2024-01-10T00:44:15;18.50;50.60
39665;DHT22;26679;50.872;4.332;2024-01-10T00:46:40;18.50;50.60
39665;DHT22;26679;50.872;4.332;2024-01-10T00:49:06;18.40;50.60
39665;DHT22;26679;50.872;4.332;2024-01-10T00:51:31;18.40;50.60
39665;DHT22;26679;50.872;4.332;2024-01-10T00:53:57;18.40;50.70
39665;DHT22;26679;50.872;4.332;2024-01-10T00:56:22;18.30;50.70
39665;DHT22;26679;50.872;4.332;2024-01-10T00:58:48;18.30;50.70
39665;DHT22;26679;50.872;4.332;2024-01-10T01:01:14;18.20;50.70
39665;DHT22;26679;50.872;4.332;2024-01-10T01:03:39;18.20;50.70
39665;DHT22;26679;50.872;4.332;2024-01-10T01:06:05;18.30;51.40
39665;DHT22;26679;50.872;4.332;2024-01-10T01:08:30;18.20;50.80
39665;DHT22;26679;50.872;4.332;2024-01-10T01:10:56;18.10;50.80
39665;DHT22;26679;50.872;4.332;2024-01-10T01:13:21;18.10;50.80
39665;DHT22;26679;50.872;4.332;2024-01-10T01:15:47;18.10;50.90
39665;DHT22;26679;50.872;4.332;2024-01-10T01:18:12;18.10;50.90
39665;DHT22;26679;50.872;4.332;2024-01-10T01:20:38;18.10;50.90
39665;DHT22;26679;50.872;4.332;2024-01-10T01:23:03;18.00;50.90
39665;DHT22;26679;50.872;4.332;2024-01-10T01:25:29;18.00;50.90
39665;DHT22;26679;50.872;4.332;2024-01-10T01:27:54;18.00;51.00
39665;DHT22;26679;50.872;4.332;2024-01-10T01:30:20;17.90;50.90
39665;DHT22;26679;50.872;4.332;2024-01-10T01:32:47;17.90;51.00
39665;DHT22;26679;50.872;4.332;2024-01-10T01:35:12;17.90;51.00
39665;DHT22;26679;50.872;4.332;2024-01-10T01:37:38;17.90;51.10
39665;DHT22;26679;50.872;4.332;2024-01-10T01:40:03;17.90;51.10
39665;DHT22;26679;50.872;4.332;2024-01-10T01:42:29;17.80;51.00
39665;DHT22;26679;50.872;4.332;2024-01-10T01:44:54;17.80;51.10
39665;DHT22;26679;50.872;4.332;2024-01-10T01:47:20;17.80;51.10
39665;DHT22;26679;50.872;4.332;2024-01-10T01:49:45;17.70;51.10
39665;DHT22;26679;50.872;4.332;2024-01-10T01:52:11;17.70;51.10
39665;DHT22;26679;50.872;4.332;2024-01-10T01:54:37;17.70;51.70
39665;DHT22;26679;50.872;4.332;2024-01-10T01:57:03;17.70;51.20
39665;DHT22;26679;50.872;4.332;2024-01-10T01:59:28;17.70;51.20
39665;DHT22;26679;50.872;4.332;2024-01-10T02:01:54;17.60;51.10
39665;DHT22;26679;50.872;4.332;2024-01-10T02:04:21;17.60;51.10
39665;DHT22;26679;50.872;4.332;2024-01-10T02:06:47;17.60;51.20
39665;DHT22;26679;50.872;4.332;2024-01-10T02:09:12;17.60;51.20
39665;DHT22;26679;50.872;4.332;2024-01-10T02:11:38;17.50;51.20
39665;DHT22;26679;50.872;4.332;2024-01-10T02:14:04;17.50;51.20
39665;DHT22;26679;50.872;4.332;2024-01-10T02:16:30;17.50;51.20
39665;DHT22;26679;50.872;4.332;2024-01-10T02:18:56;17.50;51.20
39665;DHT22;26679;50.872;4.332;2024-01-10T02:21:21;17.50;51.20
39665;DHT22;26679;50.872;4.332;2024-01-10T02:23:47;17.40;51.20
39665;DHT22;26679;50.872;4.332;2024-01-10T02:26:13;17.40;51.20
39665;DHT22;26679;50.872;4.332;2024-01-10T02:28:39;17.40;51.30
39665;DHT22;26679;50.872;4.332;2024-01-10T02:31:04;17.40;51.30
39665;DHT22;26679;50.872;4.332;2024-01-10T02:33:32;17.30;51.30
39665;DHT22;26679;50.872;4.332;2024-01-10T02:35:58;17.30;51.30
39665;DHT22;26679;50.872;4.332;2024-01-10T02:38:23;17.30;51.30
39665;DHT22;26679;50.872;4.332;2024-01-10T02:40:49;17.30;51.30
39665;DHT22;26679;50.872;4.332;2024-01-10T02:43:14;17.30;51.30
39665;DHT22;26679;50.872;4.332;2024-01-10T02:45:40;17.30;51.40
39665;DHT22;26679;50.872;4.332;2024-01-10T02:48:05;17.30;51.40
39665;DHT22;26679;50.872;4.332;2024-01-10T02:50:31;17.20;51.30
39665;DHT22;26679;50.872;4.332;2024-01-10T02:52:56;17.20;51.30
39665;DHT22;26679;50.872;4.332;2024-01-10T02:55:22;17.20;51.40
39665;DHT22;26679;50.872;4.332;2024-01-10T02:57:47;17.20;51.40
39665;DHT22;26679;50.872;4.332;2024-01-10T03:00:13;17.20;51.40
39665;DHT22;26679;50.872;4.332;2024-01-10T03:02:38;17.10;51.40
39665;DHT22;26679;50.872;4.332;2024-01-10T03:05:04;17.10;51.40
39665;DHT22;26679;50.872;4.332;2024-01-10T03:07:29;17.10;51.50
39665;DHT22;26679;50.872;4.332;2024-01-10T03:09:55;17.10;51.40
39665;DHT22;26679;50.872;4.332;2024-01-10T03:12:20;17.10;51.50
39665;DHT22;26679;50.872;4.332;2024-01-10T03:14:46;17.10;51.40
39665;DHT22;26679;50.872;4.332;2024-01-10T03:17:13;17.20;51.40
39665;DHT22;26679;50.872;4.332;2024-01-10T03:19:39;17.30;51.30
39665;DHT22;26679;50.872;4.332;2024-01-10T03:22:09;17.50;51.30
39665;DHT22;26679;50.872;4.332;2024-01-10T03:24:35;17.60;51.10
39665;DHT22;26679;50.872;4.332;2024-01-10T03:27:01;17.80;51.10
39665;DHT22;26679;50.872;4.332;2024-01-10T03:29:29;17.90;51.00
39665;DHT22;26679;50.872;4.332;2024-01-10T03:31:54;18.00;50.90
39665;DHT22;26679;50.872;4.332;2024-01-10T03:34:23;18.20;50.90
39665;DHT22;26679;50.872;4.332;2024-01-10T03:36:48;18.30;50.80
39665;DHT22;26679;50.872;4.332;2024-01-10T03:39:14;18.50;50.80
39665;DHT22;26679;50.872;4.332;2024-01-10T03:41:39;18.60;50.70
39665;DHT22;26679;50.872;4.332;2024-01-10T03:44:04;18.70;50.70
39665;DHT22;26679;50.872;4.332;2024-01-10T03:46:30;18.90;50.60
39665;DHT22;26679;50.872;4.332;2024-01-10T03:48:56;19.00;50.50
39665;DHT22;26679;50.872;4.332;2024-01-10T03:51:22;19.20;50.50
39665;DHT22;26679;50.872;4.332;2024-01-10T03:53:48;19.40;50.40
39665;DHT22;26679;50.872;4.332;2024-01-10T03:56:14;19.50;50.40
39665;DHT22;26679;50.872;4.332;2024-01-10T03:58:42;19.60;50.30
39665;DHT22;26679;50.872;4.332;2024-01-10T04:01:07;19.70;50.70
39665;DHT22;26679;50.872;4.332;2024-01-10T04:03:33;19.80;50.10
39665;DHT22;26679;50.872;4.332;2024-01-10T04:06:00;19.80;50.10
39665;DHT22;26679;50.872;4.332;2024-01-10T04:08:25;19.80;50.00
39665;DHT22;26679;50.872;4.332;2024-01-10T04:10:50;19.90;50.00
39665;DHT22;26679;50.872;4.332;2024-01-10T04:13:16;19.90;49.90
39665;DHT22;26679;50.872;4.332;2024-01-10T04:15:41;20.00;49.90
39665;DHT22;26679;50.872;4.332;2024-01-10T04:18:08;20.00;49.80
39665;DHT22;26679;50.872;4.332;2024-01-10T04:20:33;20.10;49.80
39665;DHT22;26679;50.872;4.332;2024-01-10T04:22:59;20.10;49.80
39665;DHT22;26679;50.872;4.332;2024-01-10T04:25:24;20.20;49.70
39665;DHT22;26679;50.872;4.332;2024-01-10T04:27:49;20.20;49.60
39665;DHT22;26679;50.872;4.332;2024-01-10T04:30:15;20.20;49.70
39665;DHT22;26679;50.872;4.332;2024-01-10T04:32:41;20.30;49.70
39665;DHT22;26679;50.872;4.332;2024-01-10T04:35:06;20.40;49.70
39665;DHT22;26679;50.872;4.332;2024-01-10T04:37:32;20.40;49.60
39665;DHT22;26679;50.872;4.332;2024-01-10T04:40:00;20.50;49.60
39665;DHT22;26679;50.872;4.332;2024-01-10T04:42:25;20.50;49.60
39665;DHT22;26679;50.872;4.332;2024-01-10T04:44:51;20.60;49.60
39665;DHT22;26679;50.872;4.332;2024-01-10T04:47:16;20.60;49.60
39665;DHT22;26679;50.872;4.332;2024-01-10T04:49:42;20.70;49.60
39665;DHT22;26679;50.872;4.332;2024-01-10T04:52:08;20.70;49.60
39665;DHT22;26679;50.872;4.332;2024-01-10T04:54:33;20.70;49.50
39665;DHT22;26679;50.872;4.332;2024-01-10T04:56:59;20.80;49.60
39665;DHT22;26679;50.872;4.332;2024-01-10T04:59:24;20.80;49.60
39665;DHT22;26679;50.872;4.332;2024-01-10T05:01:50;20.90;49.60
39665;DHT22;26679;50.872;4.332;2024-01-10T05:04:15;21.00;49.60
39665;DHT22;26679;50.872;4.332;2024-01-10T05:06:41;21.00;49.50
39665;DHT22;26679;50.872;4.332;2024-01-10T05:09:06;21.00;49.50
39665;DHT22;26679;50.872;4.332;2024-01-10T05:11:32;21.00;49.50
39665;DHT22;26679;50.872;4.332;2024-01-10T05:13:57;21.10;49.50
39665;DHT22;26679;50.872;4.332;2024-01-10T05:16:23;21.10;49.40
39665;DHT22;26679;50.872;4.332;2024-01-10T05:18:48;21.10;49.40
39665;DHT22;26679;50.872;4.332;2024-01-10T05:21:14;21.20;49.40
39665;DHT22;26679;50.872;4.332;2024-01-10T05:23:39;21.20;49.30
39665;DHT22;26679;50.872;4.332;2024-01-10T05:26:05;21.30;49.30
39665;DHT22;26679;50.872;4.332;2024-01-10T05:28:31;21.20;49.20
39665;DHT22;26679;50.872;4.332;2024-01-10T05:30:57;21.20;49.20
39665;DHT22;26679;50.872;4.332;2024-01-10T05:33:22;21.30;49.30
39665;DHT22;26679;50.872;4.332;2024-01-10T05:35:48;21.30;49.20
39665;DHT22;26679;50.872;4.332;2024-01-10T05:38:13;21.30;49.20
39665;DHT22;26679;50.872;4.332;2024-01-10T05:40:39;21.30;49.70
39665;DHT22;26679;50.872;4.332;2024-01-10T05:43:04;21.30;49.20
39665;DHT22;26679;50.872;4.332;2024-01-10T05:45:30;21.30;49.20
39665;DHT22;26679;50.872;4.332;2024-01-10T05:47:55;21.30;49.20
39665;DHT22;26679;50.872;4.332;2024-01-10T05:50:20;21.30;49.20
39665;DHT22;26679;50.872;4.332;2024-01-10T05:52:46;21.30;49.20
39665;DHT22;26679;50.872;4.332;2024-01-10T05:55:12;21.30;49.10
39665;DHT22;26679;50.872;4.332;2024-01-10T05:57:37;21.40;49.20
39665;DHT22;26679;50.872;4.332;2024-01-10T06:00:03;21.40;49.20
39665;DHT22;26679;50.872;4.332;2024-01-10T06:02:30;21.40;49.10
39665;DHT22;26679;50.872;4.332;2024-01-10T06:04:55;21.40;49.10
39665;DHT22;26679;50.872;4.332;2024-01-10T06:07:21;21.30;48.90
39665;DHT22;26679;50.872;4.332;2024-01-10T06:09:46;21.40;49.00
39665;DHT22;26679;50.872;4.332;2024-01-10T06:12:12;21.40;48.90
39665;DHT22;26679;50.872;4.332;2024-01-10T06:14:38;21.40;48.90
39665;DHT22;26679;50.872;4.332;2024-01-10T06:17:03;21.30;48.80
39665;DHT22;26679;50.872;4.332;2024-01-10T06:19:29;21.30;48.70
39665;DHT22;26679;50.872;4.332;2024-01-10T06:21:56;21.30;48.70
39665;DHT22;26679;50.872;4.332;2024-01-10T06:24:22;21.40;48.80
39665;DHT22;26679;50.872;4.332;2024-01-10T06:26:47;21.30;48.70
39665;DHT22;26679;50.872;4.332;2024-01-10T06:29:15;21.30;48.60
39665;DHT22;26679;50.872;4.332;2024-01-10T06:31:40;21.20;48.60
39665;DHT22;26679;50.872;4.332;2024-01-10T06:34:06;21.20;48.60
39665;DHT22;26679;50.872;4.332;2024-01-10T06:36:31;21.20;48.60
39665;DHT22;26679;50.872;4.332;2024-01-10T06:38:56;21.20;48.60
39665;DHT22;26679;50.872;4.332;2024-01-10T06:41:22;21.20;48.70
39665;DHT22;26679;50.872;4.332;2024-01-10T06:43:51;21.20;48.70
39665;DHT22;26679;50.872;4.332;2024-01-10T06:46:17;21.20;48.80
39665;DHT22;26679;50.872;4.332;2024-01-10T06:48:43;21.20;48.90
39665;DHT22;26679;50.872;4.332;2024-01-10T06:51:15;21.20;49.00
39665;DHT22;26679;50.872;4.332;2024-01-10T06:56:06;21.20;49.10
39665;DHT22;26679;50.872;4.332;2024-01-10T06:58:32;21.20;49.10
39665;DHT22;26679;50.872;4.332;2024-01-10T07:00:58;21.20;49.10
39665;DHT22;26679;50.872;4.332;2024-01-10T07:03:25;21.30;49.20
39665;DHT22;26679;50.872;4.332;2024-01-10T07:05:51;21.30;49.30
39665;DHT22;26679;50.872;4.332;2024-01-10T07:08:16;21.20;49.30
39665;DHT22;26679;50.872;4.332;2024-01-10T07:10:42;21.20;49.40
39665;DHT22;26679;50.872;4.332;2024-01-10T07:13:07;21.20;49.50
39665;DHT22;26679;50.872;4.332;2024-01-10T07:15:33;21.20;49.50
39665;DHT22;26679;50.872;4.332;2024-01-10T07:17:59;21.30;49.50
39665;DHT22;26679;50.872;4.332;2024-01-10T07:20:24;21.30;49.40
39665;DHT22;26679;50.872;4.332;2024-01-10T07:22:50;21.30;49.40
39665;DHT22;26679;50.872;4.332;2024-01-10T07:25:16;21.30;49.40
39665;DHT22;26679;50.872;4.332;2024-01-10T07:27:45;21.40;49.30
39665;DHT22;26679;50.872;4.332;2024-01-10T07:30:10;21.30;49.20
39665;DHT22;26679;50.872;4.332;2024-01-10T07:32:39;21.30;49.30
39665;DHT22;26679;50.872;4.332;2024-01-10T07:35:05;21.30;49.40
39665;DHT22;26679;50.872;4.332;2024-01-10T07:37:37;21.20;49.40
39665;DHT22;26679;50.872;4.332;2024-01-10T07:40:03;21.20;49.30
39665;DHT22;26679;50.872;4.332;2024-01-10T07:42:32;21.30;49.30
39665;DHT22;26679;50.872;4.332;2024-01-10T07:44:57;21.30;49.50
39665;DHT22;26679;50.872;4.332;2024-01-10T07:47:23;21.20;49.40
39665;DHT22;26679;50.872;4.332;2024-01-10T07:49:48;21.20;49.50
39665;DHT22;26679;50.872;4.332;2024-01-10T07:52:14;21.20;49.50
39665;DHT22;26679;50.872;4.332;2024-01-10T07:54:41;21.20;49.40
39665;DHT22;26679;50.872;4.332;2024-01-10T07:57:07;21.10;49.40
39665;DHT22;26679;50.872;4.332;2024-01-10T07:59:32;21.20;49.40
39665;DHT22;26679;50.872;4.332;2024-01-10T08:01:59;21.20;49.40
39665;DHT22;26679;50.872;4.332;2024-01-10T08:04:25;21.20;49.40
39665;DHT22;26679;50.872;4.332;2024-01-10T08:06:51;21.20;49.40
39665;DHT22;26679;50.872;4.332;2024-01-10T08:09:17;21.20;49.30
39665;DHT22;26679;50.872;4.332;2024-01-10T08:11:44;21.30;49.30
39665;DHT22;26679;50.872;4.332;2024-01-10T08:14:11;21.30;49.30
39665;DHT22;26679;50.872;4.332;2024-01-10T08:16:37;21.40;49.80
39665;DHT22;26679;50.872;4.332;2024-01-10T08:19:04;21.40;49.20
39665;DHT22;26679;50.872;4.332;2024-01-10T08:21:29;21.40;49.10
39665;DHT22;26679;50.872;4.332;2024-01-10T08:23:55;21.50;49.10
39665;DHT22;26679;50.872;4.332;2024-01-10T08:26:20;21.50;49.00
39665;DHT22;26679;50.872;4.332;2024-01-10T08:28:46;21.50;49.00
39665;DHT22;26679;50.872;4.332;2024-01-10T08:31:11;21.50;49.00
39665;DHT22;26679;50.872;4.332;2024-01-10T08:33:38;21.60;49.00
39665;DHT22;26679;50.872;4.332;2024-01-10T08:36:04;21.60;48.90
39665;DHT22;26679;50.872;4.332;2024-01-10T08:38:30;21.60;48.90
39665;DHT22;26679;50.872;4.332;2024-01-10T08:40:56;21.70;49.00
39665;DHT22;26679;50.872;4.332;2024-01-10T08:43:21;21.70;49.00
39665;DHT22;26679;50.872;4.332;2024-01-10T08:45:47;21.80;49.00
39665;DHT22;26679;50.872;4.332;2024-01-10T08:48:16;21.80;48.90
39665;DHT22;26679;50.872;4.332;2024-01-10T08:50:42;21.80;48.90
39665;DHT22;26679;50.872;4.332;2024-01-10T08:53:07;21.80;48.80
39665;DHT22;26679;50.872;4.332;2024-01-10T08:55:33;21.80;48.80
39665;DHT22;26679;50.872;4.332;2024-01-10T08:57:59;21.90;48.80
39665;DHT22;26679;50.872;4.332;2024-01-10T09:00:24;21.90;48.80
39665;DHT22;26679;50.872;4.332;2024-01-10T09:02:50;21.90;48.80
39665;DHT22;26679;50.872;4.332;2024-01-10T09:05:15;22.00;48.80
39665;DHT22;26679;50.872;4.332;2024-01-10T09:07:41;22.00;48.70
39665;DHT22;26679;50.872;4.332;2024-01-10T09:10:07;22.00;48.70
39665;DHT22;26679;50.872;4.332;2024-01-10T09:12:34;22.00;48.60
39665;DHT22;26679;50.872;4.332;2024-01-10T09:14:59;22.00;48.50
39665;DHT22;26679;50.872;4.332;2024-01-10T09:17:26;22.00;48.60
39665;DHT22;26679;50.872;4.332;2024-01-10T09:19:51;22.10;48.60
39665;DHT22;26679;50.872;4.332;2024-01-10T09:22:17;22.00;48.50
39665;DHT22;26679;50.872;4.332;2024-01-10T09:24:42;22.00;48.50
39665;DHT22;26679;50.872;4.332;2024-01-10T09:27:08;22.10;48.50
39665;DHT22;26679;50.872;4.332;2024-01-10T09:29:34;22.00;48.40
39665;DHT22;26679;50.872;4.332;2024-01-10T09:31:59;22.00;48.50
39665;DHT22;26679;50.872;4.332;2024-01-10T09:34:25;22.00;48.50
39665;DHT22;26679;50.872;4.332;2024-01-10T09:36:50;22.00;48.50
39665;DHT22;26679;50.872;4.332;2024-01-10T09:39:17;21.90;49.10
39665;DHT22;26679;50.872;4.332;2024-01-10T09:41:46;22.00;48.60
39665;DHT22;26679;50.872;4.332;2024-01-10T09:44:13;22.00;48.50
39665;DHT22;26679;50.872;4.332;2024-01-10T09:46:39;22.00;48.50
39665;DHT22;26679;50.872;4.332;2024-01-10T09:49:05;22.00;48.50
39665;DHT22;26679;50.872;4.332;2024-01-10T09:51:31;22.00;48.60
39665;DHT22;26679;50.872;4.332;2024-01-10T09:53:58;22.00;48.60
39665;DHT22;26679;50.872;4.332;2024-01-10T09:56:23;22.00;48.60
39665;DHT22;26679;50.872;4.332;2024-01-10T09:58:49;22.00;48.70
39665;DHT22;26679;50.872;4.332;2024-01-10T10:01:16;22.00;48.70
39665;DHT22;26679;50.872;4.332;2024-01-10T10:03:42;22.00;48.70
39665;DHT22;26679;50.872;4.332;2024-01-10T10:06:11;22.00;48.60
39665;DHT22;26679;50.872;4.332;2024-01-10T10:08:37;22.00;48.60
39665;DHT22;26679;50.872;4.332;2024-01-10T10:11:03;22.00;48.60
39665;DHT22;26679;50.872;4.332;2024-01-10T10:13:29;22.00;48.60
39665;DHT22;26679;50.872;4.332;2024-01-10T10:15:58;22.00;48.50
39665;DHT22;26679;50.872;4.332;2024-01-10T10:18:25;22.10;48.50
39665;DHT22;26679;50.872;4.332;2024-01-10T10:21:03;22.10;48.40
39665;DHT22;26679;50.872;4.332;2024-01-10T10:23:31;22.20;48.40
39665;DHT22;26679;50.872;4.332;2024-01-10T10:25:56;22.20;48.30
39665;DHT22;26679;50.872;4.332;2024-01-10T10:28:27;22.20;48.20
39665;DHT22;26679;50.872;4.332;2024-01-10T10:30:53;22.20;48.10
39665;DHT22;26679;50.872;4.332;2024-01-10T10:33:19;22.20;48.00
39665;DHT22;26679;50.872;4.332;2024-01-10T10:35:46;22.20;48.00
39665;DHT22;26679;50.872;4.332;2024-01-10T10:38:12;22.20;47.90
39665;DHT22;26679;50.872;4.332;2024-01-10T10:40:37;22.20;48.00
39665;DHT22;26679;50.872;4.332;2024-01-10T10:43:03;22.20;48.00
39665;DHT22;26679;50.872;4.332;2024-01-10T10:45:29;22.20;48.00
39665;DHT22;26679;50.872;4.332;2024-01-10T10:47:57;22.30;48.10
39665;DHT22;26679;50.872;4.332;2024-01-10T10:50:23;22.30;48.10
39665;DHT22;26679;50.872;4.332;2024-01-10T10:52:48;22.40;48.10
39665;DHT22;26679;50.872;4.332;2024-01-10T10:55:20;22.40;48.10
39665;DHT22;26679;50.872;4.332;2024-01-10T10:57:48;22.40;48.10
39665;DHT22;26679;50.872;4.332;2024-01-10T11:00:14;22.40;48.20
39665;DHT22;26679;50.872;4.332;2024-01-10T11:02:43;22.40;48.20
39665;DHT22;26679;50.872;4.332;2024-01-10T11:05:09;22.50;48.20
39665;DHT22;26679;50.872;4.332;2024-01-10T11:07:36;22.50;48.20
39665;DHT22;26679;50.872;4.332;2024-01-10T11:10:02;22.50;48.30
39665;DHT22;26679;50.872;4.332;2024-01-10T11:12:39;22.50;48.30
39665;DHT22;26679;50.872;4.332;2024-01-10T11:20:31;22.50;48.20
39665;DHT22;26679;50.872;4.332;2024-01-10T11:23:07;22.70;48.40
39665;DHT22;26679;50.872;4.332;2024-01-10T11:25:35;22.60;48.30
39665;DHT22;26679;50.872;4.332;2024-01-10T11:28:02;22.70;48.30
39665;DHT22;26679;50.872;4.332;2024-01-10T11:30:35;22.70;48.30
39665;DHT22;26679;50.872;4.332;2024-01-10T11:33:01;22.70;48.30
39665;DHT22;26679;50.872;4.332;2024-01-10T11:35:27;22.70;48.40
39665;DHT22;26679;50.872;4.332;2024-01-10T11:37:56;22.70;48.40
39665;DHT22;26679;50.872;4.332;2024-01-10T11:40:45;22.70;48.50
39665;DHT22;26679;50.872;4.332;2024-01-10T11:43:14;22.70;48.50
39665;DHT22;26679;50.872;4.332;2024-01-10T11:45:49;22.70;48.50
39665;DHT22;26679;50.872;4.332;2024-01-10T11:48:15;22.70;48.50
39665;DHT22;26679;50.872;4.332;2024-01-10T11:50:42;22.80;48.60
39665;DHT22;26679;50.872;4.332;2024-01-10T11:53:07;22.80;48.60
39665;DHT22;26679;50.872;4.332;2024-01-10T11:55:51;22.80;48.60
39665;DHT22;26679;50.872;4.332;2024-01-10T11:58:20;22.70;48.50
39665;DHT22;26679;50.872;4.332;2024-01-10T12:00:48;22.80;48.60
39665;DHT22;26679;50.872;4.332;2024-01-10T12:03:14;22.80;48.60
39665;DHT22;26679;50.872;4.332;2024-01-10T12:05:40;22.70;48.60
39665;DHT22;26679;50.872;4.332;2024-01-10T12:08:10;22.80;48.70
39665;DHT22;26679;50.872;4.332;2024-01-10T12:10:35;22.80;48.70
39665;DHT22;26679;50.872;4.332;2024-01-10T12:13:05;22.90;48.70
39665;DHT22;26679;50.872;4.332;2024-01-10T12:15:31;22.90;48.70
39665;DHT22;26679;50.872;4.332;2024-01-10T12:17:56;22.90;48.70
39665;DHT22;26679;50.872;4.332;2024-01-10T12:20:22;22.90;48.70
39665;DHT22;26679;50.872;4.332;2024-01-10T12:22:47;22.90;48.70
39665;DHT22;26679;50.872;4.332;2024-01-10T12:25:13;23.00;48.70
39665;DHT22;26679;50.872;4.332;2024-01-10T12:27:38;23.00;48.70
39665;DHT22;26679;50.872;4.332;2024-01-10T12:30:04;23.00;48.80
39665;DHT22;26679;50.872;4.332;2024-01-10T12:32:31;22.90;48.70
39665;DHT22;26679;50.872;4.332;2024-01-10T12:35:01;22.90;48.80
39665;DHT22;26679;50.872;4.332;2024-01-10T12:37:27;22.90;48.80
39665;DHT22;26679;50.872;4.332;2024-01-10T12:39:52;22.90;48.90
39665;DHT22;26679;50.872;4.332;2024-01-10T12:42:18;22.80;48.80
39665;DHT22;26679;50.872;4.332;2024-01-10T12:44:44;22.80;48.80
39665;DHT22;26679;50.872;4.332;2024-01-10T12:47:17;22.80;48.80
39665;DHT22;26679;50.872;4.332;2024-01-10T12:49:43;22.80;48.90
39665;DHT22;26679;50.872;4.332;2024-01-10T12:52:08;22.80;48.90
39665;DHT22;26679;50.872;4.332;2024-01-10T12:54:34;22.80;48.80
39665;DHT22;26679;50.872;4.332;2024-01-10T12:56:59;22.70;48.60
39665;DHT22;26679;50.872;4.332;2024-01-10T12:59:25;22.70;48.50
39665;DHT22;26679;50.872;4.332;2024-01-10T13:01:50;22.70;48.40
39665;DHT22;26679;50.872;4.332;2024-01-10T13:04:16;22.70;48.20
39665;DHT22;26679;50.872;4.332;2024-01-10T13:06:41;22.70;48.10
39665;DHT22;26679;50.872;4.332;2024-01-10T13:09:07;22.70;48.00
39665;DHT22;26679;50.872;4.332;2024-01-10T13:11:32;22.70;47.90
39665;DHT22;26679;50.872;4.332;2024-01-10T13:13:58;22.70;47.90
39665;DHT22;26679;50.872;4.332;2024-01-10T13:16:23;22.80;47.90
39665;DHT22;26679;50.872;4.332;2024-01-10T13:18:49;22.90;48.00
39665;DHT22;26679;50.872;4.332;2024-01-10T13:21:16;22.90;48.10
39665;DHT22;26679;50.872;4.332;2024-01-10T13:23:41;22.90;48.10
39665;DHT22;26679;50.872;4.332;2024-01-10T13:26:07;23.00;48.20
39665;DHT22;26679;50.872;4.332;2024-01-10T13:28:32;23.00;48.30
39665;DHT22;26679;50.872;4.332;2024-01-10T13:30:58;23.00;48.30
39665;DHT22;26679;50.872;4.332;2024-01-10T13:33:23;23.10;48.40
39665;DHT22;26679;50.872;4.332;2024-01-10T13:35:50;23.10;48.40
39665;DHT22;26679;50.872;4.332;2024-01-10T13:38:16;23.10;48.50
39665;DHT22;26679;50.872;4.332;2024-01-10T13:40:41;23.10;48.60
39665;DHT22;26679;50.872;4.332;2024-01-10T13:43:07;23.10;48.70
39665;DHT22;26679;50.872;4.332;2024-01-10T13:45:32;23.20;48.80
39665;DHT22;26679;50.872;4.332;2024-01-10T13:47:58;23.20;48.80
39665;DHT22;26679;50.872;4.332;2024-01-10T13:50:25;23.20;48.90
39665;DHT22;26679;50.872;4.332;2024-01-10T13:52:51;23.20;49.00
39665;DHT22;26679;50.872;4.332;2024-01-10T13:55:16;23.20;49.10
39665;DHT22;26679;50.872;4.332;2024-01-10T13:57:42;23.20;49.20
39665;DHT22;26679;50.872;4.332;2024-01-10T14:00:07;23.20;49.20
39665;DHT22;26679;50.872;4.332;2024-01-10T14:02:34;23.10;49.30
39665;DHT22;26679;50.872;4.332;2024-01-10T14:05:01;23.10;49.40
39665;DHT22;26679;50.872;4.332;2024-01-10T14:07:30;23.10;49.50
39665;DHT22;26679;50.872;4.332;2024-01-10T14:09:56;23.00;49.50
39665;DHT22;26679;50.872;4.332;2024-01-10T14:12:21;23.00;49.70
39665;DHT22;26679;50.872;4.332;2024-01-10T14:14:47;23.00;49.80
39665;DHT22;26679;50.872;4.332;2024-01-10T14:17:13;23.00;49.90
39665;DHT22;26679;50.872;4.332;2024-01-10T14:19:38;22.90;49.90
39665;DHT22;26679;50.872;4.332;2024-01-10T14:22:04;22.90;50.00
39665;DHT22;26679;50.872;4.332;2024-01-10T14:24:29;22.90;50.10
39665;DHT22;26679;50.872;4.332;2024-01-10T14:26:55;22.80;50.20
39665;DHT22;26679;50.872;4.332;2024-01-10T14:29:20;22.80;50.30
39665;DHT22;26679;50.872;4.332;2024-01-10T14:31:47;22.80;50.40
39665;DHT22;26679;50.872;4.332;2024-01-10T14:34:14;22.70;50.50
39665;DHT22;26679;50.872;4.332;2024-01-10T14:36:40;22.70;50.60
39665;DHT22;26679;50.872;4.332;2024-01-10T14:39:05;22.60;50.60
39665;DHT22;26679;50.872;4.332;2024-01-10T14:41:33;22.50;50.70
39665;DHT22;26679;50.872;4.332;2024-01-10T14:43:59;22.50;50.80
39665;DHT22;26679;50.872;4.332;2024-01-10T14:46:25;22.50;51.50
39665;DHT22;26679;50.872;4.332;2024-01-10T14:48:53;22.40;51.00
39665;DHT22;26679;50.872;4.332;2024-01-10T14:51:18;22.40;51.10
39665;DHT22;26679;50.872;4.332;2024-01-10T14:53:44;22.30;51.10
39665;DHT22;26679;50.872;4.332;2024-01-10T14:56:09;22.30;51.30
39665;DHT22;26679;50.872;4.332;2024-01-10T14:58:35;22.30;51.40
39665;DHT22;26679;50.872;4.332;2024-01-10T15:01:00;22.20;51.40
39665;DHT22;26679;50.872;4.332;2024-01-10T15:03:26;22.20;51.50
39665;DHT22;26679;50.872;4.332;2024-01-10T15:05:51;22.20;51.50
39665;DHT22;26679;50.872;4.332;2024-01-10T15:08:18;22.20;51.60
39665;DHT22;26679;50.872;4.332;2024-01-10T15:10:44;22.20;51.60
39665;DHT22;26679;50.872;4.332;2024-01-10T15:13:09;22.30;51.70
39665;DHT22;26679;50.872;4.332;2024-01-10T15:15:38;22.30;51.80
39665;DHT22;26679;50.872;4.332;2024-01-10T15:18:05;22.30;51.80
39665;DHT22;26679;50.872;4.332;2024-01-10T15:20:30;22.30;51.90
39665;DHT22;26679;50.872;4.332;2024-01-10T15:22:56;22.30;51.90
39665;DHT22;26679;50.872;4.332;2024-01-10T15:25:21;22.30;52.00
39665;DHT22;26679;50.872;4.332;2024-01-10T15:27:46;22.30;52.00
39665;DHT22;26679;50.872;4.332;2024-01-10T15:30:13;22.30;52.00